KANB/ANB METAR and TAF weather

Enter ICAO airport designator
Station Type Date Time Source
KANB METAR 2020/01/26 18:53 UTC NOAA

KANB 261853Z AUTO 00000KT 10SM OVC075 10/02 A3007 RMK AO2 SLP189 T01000022


Station Type Date Time Source
KANB Decoded METAR 2020/01/26 18:53 UTC NOAA

ANNISTON METRO AIRPORT, AL, United States (KANB) 33-35N 085-51W 183M
Jan 26, 2020 - 01:53 PM EST / 2020.01.26 1853 UTC
Wind: Calm:0
Visibility: 10 mile(s):0
Sky conditions: overcast
Temperature: 50.0 F (10.0 C)
Dew Point: 36.0 F (2.2 C)
Relative Humidity: 58%
Pressure (altimeter): 30.07 in. Hg (1018 hPa)
ob: KANB 261853Z AUTO 00000KT 10SM OVC075 10/02 A3007 RMK AO2 SLP189 T01000022
cycle: 19

Station Type Date Time Source
KANB TAF 2020/01/26 18:22 UTC NOAA

TAF KANB 261720Z 2618/2718 VRB03KT P6SM VCSH BKN050
FM270600 00000KT 6SM -RA OVC025
FM270900 00000KT 4SM -RA OVC007
FM271400 VRB03KT 5SM -DZ BR OVC008

Example: see airport list